createdAt,value
2023-04-21T00:00:49.104Z,98143.53
2023-04-21T00:03:56.320Z,98145.69
2023-04-21T00:07:04.086Z,98144.53
2023-04-21T00:10:13.261Z,98143.88
2023-04-21T00:13:21.340Z,98142.91
2023-04-21T00:16:31.000Z,98134.59
2023-04-21T00:19:36.950Z,98140.22
2023-04-21T00:22:44.028Z,98135.75
2023-04-21T00:25:49.906Z,98141.56
2023-04-21T00:28:56.757Z,98139.38
2023-04-21T00:32:08.760Z,98137.88
2023-04-21T00:35:16.421Z,98133.91
2023-04-21T00:38:22.323Z,98130.75
2023-04-21T00:41:32.073Z,98137.38
2023-04-21T00:44:44.616Z,98128.91
2023-04-21T00:47:54.128Z,98128.28
2023-04-21T00:51:00.295Z,98134.69
2023-04-21T00:54:10.435Z,98131.38
2023-04-21T00:57:17.004Z,98126.88
2023-04-21T01:00:24.028Z,98134.63
2023-04-21T01:03:34.758Z,98135.25
2023-04-21T01:06:45.817Z,98132.59
2023-04-21T01:09:55.324Z,98124.75
2023-04-21T01:13:03.630Z,98125.31
2023-04-21T01:16:11.357Z,98127.28
2023-04-21T01:19:20.966Z,98125.09
2023-04-21T01:22:36.003Z,98130.50
2023-04-21T01:25:42.784Z,98137.59
2023-04-21T01:28:49.496Z,98125.16
2023-04-21T01:31:56.316Z,98129.31
2023-04-21T01:35:04.584Z,98144.84
2023-04-21T01:38:14.531Z,98143.38
2023-04-21T01:41:22.143Z,98141.63
2023-04-21T01:44:35.460Z,98136.16
2023-04-21T01:47:41.575Z,98133.34
2023-04-21T01:50:56.330Z,98129.88
2023-04-21T01:54:09.155Z,98124.06
2023-04-21T01:57:16.071Z,98116.03
2023-04-21T02:00:22.601Z,98128.56
2023-04-21T02:03:29.700Z,98136.13
2023-04-21T02:06:36.511Z,98129.19
2023-04-21T02:09:46.406Z,98128.19
2023-04-21T02:12:53.990Z,98122.75
2023-04-21T02:16:12.881Z,98130.56
2023-04-21T02:19:27.325Z,98127.91
2023-04-21T02:22:34.847Z,98127.94
2023-04-21T02:25:45.069Z,98128.56
2023-04-21T02:28:52.743Z,98133.84
2023-04-21T02:32:05.146Z,98126.91
2023-04-21T02:35:17.920Z,98128.25
2023-04-21T02:38:23.732Z,98132.75
2023-04-21T02:41:33.164Z,98124.84
2023-04-21T02:44:41.217Z,98128.69
2023-04-21T02:47:48.010Z,98134.34
2023-04-21T02:50:56.756Z,98128.38
2023-04-21T02:54:05.192Z,98123.75
2023-04-21T02:57:13.709Z,98127.22
2023-04-21T03:00:21.333Z,98123.09
2023-04-21T03:03:27.364Z,98123.91
2023-04-21T03:06:37.241Z,98125.06
2023-04-21T03:09:45.224Z,98119.75
2023-04-21T03:12:54.705Z,98124.59
2023-04-21T03:16:00.813Z,98121.75
2023-04-21T03:19:07.676Z,98120.09
2023-04-21T03:22:16.050Z,98120.09
2023-04-21T03:25:30.438Z,98127.03
2023-04-21T03:28:49.830Z,98129.84
2023-04-21T03:32:06.182Z,98123.06
2023-04-21T03:35:12.312Z,98132.66
2023-04-21T03:38:19.077Z,98124.03
2023-04-21T03:41:25.349Z,98121.03
2023-04-21T03:44:34.967Z,98129.50
2023-04-21T03:47:41.319Z,98130.97
2023-04-21T03:50:48.119Z,98133.59
2023-04-21T03:53:54.168Z,98123.66
2023-04-21T03:57:00.812Z,98142.72
2023-04-21T04:00:13.078Z,98142.72
2023-04-21T04:03:21.900Z,98137.25
2023-04-21T04:06:29.842Z,98144.84
2023-04-21T04:09:36.551Z,98152.44
2023-04-21T04:12:42.574Z,98156.59
2023-04-21T04:15:51.973Z,98150.16
2023-04-21T04:18:58.155Z,98162.41
2023-04-21T04:22:07.962Z,98161.09
2023-04-21T04:25:21.436Z,98159.47
2023-04-21T04:28:29.203Z,98140.47
2023-04-21T04:31:38.132Z,98162.41
2023-04-21T04:34:44.920Z,98160.44
2023-04-21T04:37:51.084Z,98162.03
2023-04-21T04:40:59.271Z,98162.59
2023-04-21T04:44:05.336Z,98166.44
2023-04-21T04:47:15.400Z,98161.06
2023-04-21T04:50:21.661Z,98167.00
2023-04-21T04:53:28.616Z,98168.91
2023-04-21T04:56:41.448Z,98172.78
2023-04-21T04:59:57.351Z,98173.06
2023-04-21T05:03:06.489Z,98172.72
2023-04-21T05:06:14.393Z,98162.97
2023-04-21T05:09:26.500Z,98166.59
2023-04-21T05:12:38.157Z,98173.53
2023-04-21T05:15:47.485Z,98166.78
2023-04-21T05:18:56.968Z,98172.50
2023-04-21T05:22:06.733Z,98170.91
2023-04-21T05:25:16.206Z,98171.50
2023-04-21T05:28:23.483Z,98172.44
2023-04-21T05:31:30.639Z,98174.16
2023-04-21T05:34:39.400Z,98170.97
2023-04-21T05:37:46.184Z,98173.94
2023-04-21T05:40:58.096Z,98177.13
2023-04-21T05:44:04.953Z,98178.81
2023-04-21T05:47:11.194Z,98180.34
2023-04-21T05:50:20.693Z,98182.13
2023-04-21T05:53:27.854Z,98175.31
2023-04-21T05:56:34.659Z,98171.50
2023-04-21T05:59:40.721Z,98170.41
2023-04-21T06:02:47.580Z,98169.13
2023-04-21T06:06:00.643Z,98153.44
2023-04-21T06:09:10.249Z,98164.97
2023-04-21T06:12:16.208Z,98164.00
2023-04-21T06:15:22.942Z,98175.06
2023-04-21T06:18:30.685Z,98169.09
2023-04-21T06:21:40.038Z,98166.66
2023-04-21T06:24:46.113Z,98165.97
2023-04-21T06:27:52.850Z,98165.53
2023-04-21T06:30:58.771Z,98174.63
2023-04-21T06:34:05.849Z,98165.63
2023-04-21T06:37:14.412Z,98174.91
2023-04-21T06:40:21.474Z,98166.97
2023-04-21T06:43:27.414Z,98171.56
2023-04-21T06:46:34.214Z,98175.25
2023-04-21T06:49:40.493Z,98169.34
2023-04-21T06:52:50.019Z,98176.91
2023-04-21T06:55:56.615Z,98175.88
2023-04-21T06:59:03.557Z,98175.25
2023-04-21T07:02:09.780Z,98176.41
2023-04-21T07:05:16.582Z,98178.00
2023-04-21T07:08:25.224Z,98177.56
2023-04-21T07:11:32.094Z,98173.28
2023-04-21T07:14:37.916Z,98175.28
2023-04-21T07:17:44.786Z,98173.09
2023-04-21T07:20:51.789Z,98172.06
2023-04-21T07:24:01.709Z,98176.28
2023-04-21T07:27:07.882Z,98167.41
2023-04-21T07:30:16.088Z,98176.81
2023-04-21T07:33:21.989Z,98179.75
2023-04-21T07:36:31.107Z,98171.25
2023-04-21T07:39:39.740Z,98169.41
2023-04-21T07:42:46.691Z,98164.50
2023-04-21T07:45:52.865Z,98162.97
2023-04-21T07:49:13.532Z,98169.72
2023-04-21T07:52:34.765Z,98161.00
2023-04-21T07:55:44.219Z,98156.44
2023-04-21T07:58:50.154Z,98152.53
2023-04-21T08:01:57.273Z,98149.34
2023-04-21T08:05:03.598Z,98146.88
2023-04-21T08:08:10.817Z,98159.44
2023-04-21T08:11:32.443Z,98160.28
2023-04-21T08:14:39.252Z,98153.19
2023-04-21T08:17:45.255Z,98145.69
2023-04-21T08:20:52.762Z,98154.59
2023-04-21T08:23:58.750Z,98152.75
2023-04-21T08:27:08.233Z,98146.34
2023-04-21T08:30:16.622Z,98153.22
2023-04-21T08:33:23.595Z,98143.69
2023-04-21T08:36:30.354Z,98138.16
2023-04-21T08:39:37.549Z,98133.56
2023-04-21T08:42:46.327Z,98135.16
2023-04-21T08:45:55.656Z,98135.16
2023-04-21T08:49:03.078Z,98132.63
2023-04-21T08:52:16.965Z,98134.50
2023-04-21T08:55:29.272Z,98125.47
2023-04-21T08:58:39.006Z,98137.44
2023-04-21T09:02:16.516Z,98141.31
2023-04-21T09:05:27.486Z,98130.88
2023-04-21T09:08:40.247Z,98124.03
2023-04-21T09:11:53.211Z,98126.88
2023-04-21T09:15:02.564Z,98109.84
2023-04-21T09:18:16.053Z,98115.06
2023-04-21T09:21:23.638Z,98112.59
2023-04-21T09:24:34.126Z,98110.75
2023-04-21T09:27:40.269Z,98110.03
2023-04-21T09:30:49.645Z,98114.50
2023-04-21T09:34:00.704Z,98113.38
2023-04-21T09:37:18.207Z,98114.00
2023-04-21T09:40:31.598Z,98109.97
2023-04-21T09:43:52.317Z,98106.38
2023-04-21T09:47:06.317Z,98106.03
2023-04-21T09:50:17.199Z,98104.53
2023-04-21T09:53:31.608Z,98101.81
2023-04-21T09:56:45.726Z,98100.84
2023-04-21T09:59:59.786Z,98098.34
2023-04-21T10:03:11.772Z,98094.63
2023-04-21T10:06:19.775Z,98090.22
2023-04-21T10:09:34.680Z,98087.78
2023-04-21T10:12:41.451Z,98090.44
2023-04-21T10:15:48.331Z,98087.44
2023-04-21T10:18:57.113Z,98087.97
2023-04-21T10:22:04.071Z,98083.59
2023-04-21T10:25:15.101Z,98077.88
2023-04-21T10:28:25.241Z,98076.47
2023-04-21T10:31:37.026Z,98076.09
2023-04-21T10:34:47.066Z,98061.06
2023-04-21T10:37:55.521Z,98063.34
2023-04-21T10:41:34.129Z,98071.69
2023-04-21T10:44:45.327Z,98069.94
2023-04-21T10:47:53.067Z,98071.75
2023-04-21T10:51:08.631Z,98063.69
2023-04-21T10:54:21.303Z,98073.16
2023-04-21T10:57:27.399Z,98061.88
2023-04-21T11:00:34.806Z,98056.47
2023-04-21T11:03:51.761Z,98051.09
2023-04-21T11:07:15.361Z,98057.28
2023-04-21T11:10:21.258Z,98054.44
2023-04-21T11:13:34.008Z,98053.91
2023-04-21T11:16:42.459Z,98057.09
2023-04-21T11:19:52.562Z,98042.19
2023-04-21T11:23:02.780Z,98046.78
2023-04-21T11:26:09.552Z,98043.06
2023-04-21T11:29:15.918Z,98038.75
2023-04-21T11:32:22.701Z,98043.25
2023-04-21T11:35:28.786Z,98040.34
2023-04-21T11:38:44.898Z,98036.75
2023-04-21T11:41:53.885Z,98040.56
2023-04-21T11:45:01.306Z,98034.81
2023-04-21T11:48:22.879Z,98032.91
2023-04-21T11:51:31.791Z,98034.00
2023-04-21T11:54:42.037Z,98023.44
2023-04-21T11:57:49.086Z,98021.19
2023-04-21T12:00:55.153Z,98026.63
2023-04-21T12:04:02.069Z,98015.53
2023-04-21T12:07:08.189Z,98020.53
2023-04-21T12:10:21.687Z,98014.66
2023-04-21T12:13:28.628Z,98015.63
2023-04-21T12:16:35.560Z,98011.34
2023-04-21T12:19:44.733Z,98013.28
2023-04-21T12:22:52.700Z,98008.22
2023-04-21T12:26:01.732Z,98001.56
2023-04-21T12:29:08.524Z,97998.00
2023-04-21T12:32:14.376Z,97992.72
2023-04-21T12:35:35.980Z,98004.91
2023-04-21T12:38:43.618Z,97990.34
2023-04-21T12:41:52.991Z,97995.03
2023-04-21T12:44:58.817Z,97996.75
2023-04-21T12:48:07.073Z,97992.88
2023-04-21T12:51:13.139Z,97990.50
2023-04-21T12:54:20.665Z,97986.19
2023-04-21T12:57:29.902Z,97980.44
2023-04-21T13:00:36.840Z,97990.88
2023-04-21T13:03:44.571Z,97977.41
2023-04-21T13:06:51.782Z,97980.06
2023-04-21T13:09:57.919Z,97978.00
2023-04-21T13:13:07.607Z,97976.81
2023-04-21T13:16:13.809Z,97973.38
2023-04-21T13:19:20.844Z,97975.38
2023-04-21T13:22:27.116Z,97980.97
2023-04-21T13:25:34.055Z,97970.53
2023-04-21T13:28:42.931Z,97971.13
2023-04-21T13:31:49.904Z,97969.38
2023-04-21T13:34:56.167Z,97967.53
2023-04-21T13:38:02.913Z,97960.38
2023-04-21T13:41:09.549Z,97953.19
2023-04-21T13:44:19.090Z,97950.03
2023-04-21T13:47:25.136Z,97954.81
2023-04-21T13:50:32.038Z,97947.22
2023-04-21T13:53:37.936Z,97940.41
2023-04-21T13:56:44.845Z,97937.72
2023-04-21T13:59:54.492Z,97934.94
2023-04-21T14:03:01.910Z,97937.16
2023-04-21T14:06:11.441Z,97930.38
2023-04-21T14:09:18.682Z,97937.75
2023-04-21T14:12:26.398Z,97932.94
2023-04-21T14:15:36.200Z,97943.03
2023-04-21T14:18:45.395Z,97929.91
2023-04-21T14:21:52.177Z,97931.63
2023-04-21T14:24:58.108Z,97921.94
2023-04-21T14:28:07.583Z,97924.03
2023-04-21T14:31:16.545Z,97925.09
2023-04-21T14:34:23.426Z,97919.00
2023-04-21T14:37:30.471Z,97925.53
2023-04-21T14:40:37.293Z,97915.44
2023-04-21T14:43:43.258Z,97917.22
2023-04-21T14:47:05.602Z,97911.72
2023-04-21T14:50:15.225Z,97912.19
2023-04-21T14:53:22.177Z,97906.34
2023-04-21T14:56:28.141Z,97906.34
2023-04-21T14:59:35.289Z,97903.63
2023-04-21T15:02:44.637Z,97894.59
2023-04-21T15:05:51.490Z,97895.78
2023-04-21T15:08:57.466Z,97894.16
2023-04-21T15:12:04.321Z,97890.63
2023-04-21T15:15:12.060Z,97891.09
2023-04-21T15:18:21.663Z,97893.78
2023-04-21T15:21:27.991Z,97885.72
2023-04-21T15:24:34.896Z,97878.91
2023-04-21T15:27:41.474Z,97880.72
2023-04-21T15:30:48.356Z,97873.78
2023-04-21T15:33:59.234Z,97885.59
2023-04-21T15:37:05.981Z,97875.19
2023-04-21T15:40:14.194Z,97868.63
2023-04-21T15:43:22.040Z,97872.19
2023-04-21T15:46:29.659Z,97873.03
2023-04-21T15:49:39.296Z,97864.34
2023-04-21T15:52:45.577Z,97874.06
2023-04-21T15:55:52.756Z,97872.78
2023-04-21T15:58:58.657Z,97862.59
2023-04-21T16:02:06.372Z,97866.13
2023-04-21T16:05:15.575Z,97861.91
2023-04-21T16:08:22.468Z,97852.00
2023-04-21T16:11:29.654Z,97853.72
2023-04-21T16:14:51.255Z,97856.09
2023-04-21T16:18:04.291Z,97841.50
2023-04-21T16:21:13.871Z,97856.34
2023-04-21T16:24:20.228Z,97848.50
2023-04-21T16:27:27.133Z,97845.59
2023-04-21T16:30:33.329Z,97844.31
2023-04-21T16:33:40.088Z,97848.75
2023-04-21T16:36:48.961Z,97845.88
2023-04-21T16:40:02.863Z,97850.19
2023-04-21T16:43:09.363Z,97850.72
2023-04-21T16:46:22.873Z,97847.41
2023-04-21T16:49:30.571Z,97848.59
2023-04-21T16:52:40.149Z,97848.22
2023-04-21T16:55:46.253Z,97852.19
2023-04-21T16:58:58.567Z,97850.19
2023-04-21T17:02:04.713Z,97855.69
2023-04-21T17:05:13.062Z,97853.06
2023-04-21T17:08:28.828Z,97848.63
2023-04-21T17:11:37.502Z,97848.31
2023-04-21T17:14:44.775Z,97845.72
2023-04-21T17:17:51.656Z,97847.97
2023-04-21T17:20:57.714Z,97854.09
2023-04-21T17:24:07.650Z,97849.53
2023-04-21T17:27:23.689Z,97843.06
2023-04-21T17:30:30.440Z,97843.78
2023-04-21T17:33:46.908Z,97848.88
2023-04-21T17:36:53.937Z,97836.41
2023-04-21T17:40:09.852Z,97850.41
2023-04-21T17:43:16.829Z,97855.63
2023-04-21T17:46:25.109Z,97851.75
2023-04-21T17:49:32.516Z,97852.28
2023-04-21T17:52:38.571Z,97855.47
2023-04-21T17:55:48.109Z,97856.59
2023-04-21T17:58:56.390Z,97860.19
2023-04-21T18:02:16.201Z,97858.81
2023-04-21T18:05:23.449Z,97862.44
2023-04-21T18:08:30.388Z,97867.47
2023-04-21T18:11:39.430Z,97876.56
2023-04-21T18:14:46.329Z,97875.31
2023-04-21T18:17:53.484Z,97879.44
2023-04-21T18:21:00.571Z,97873.69
2023-04-21T18:24:06.654Z,97882.38
2023-04-21T18:27:17.810Z,97885.28
2023-04-21T18:30:24.396Z,97883.44
2023-04-21T18:33:32.066Z,97879.56
2023-04-21T18:36:45.956Z,97881.63
2023-04-21T18:39:52.688Z,97886.59
2023-04-21T18:43:02.850Z,97882.88
2023-04-21T18:46:21.831Z,97885.38
2023-04-21T18:49:32.080Z,97890.31
2023-04-21T18:52:38.961Z,97882.94
2023-04-21T18:55:45.747Z,97881.91
2023-04-21T18:58:57.008Z,97882.31
2023-04-21T19:02:04.286Z,97877.56
2023-04-21T19:05:12.665Z,97881.50
2023-04-21T19:08:30.064Z,97884.78
2023-04-21T19:11:45.279Z,97880.03
2023-04-21T19:14:55.543Z,97878.59
2023-04-21T19:18:02.562Z,97880.44
2023-04-21T19:21:13.008Z,97877.78
2023-04-21T19:24:21.606Z,97877.75
2023-04-21T19:27:27.732Z,97868.91
2023-04-21T19:30:37.615Z,97873.81
2023-04-21T19:33:44.746Z,97878.97
2023-04-21T19:36:53.225Z,97871.16
2023-04-21T19:39:59.429Z,97873.22
2023-04-21T19:43:09.103Z,97876.06
2023-04-21T19:46:17.816Z,97873.00
2023-04-21T19:49:25.205Z,97875.44
2023-04-21T19:52:31.294Z,97885.50
2023-04-21T19:55:38.065Z,97876.81
2023-04-21T19:58:44.625Z,97879.66
2023-04-21T20:02:05.246Z,97872.00
2023-04-21T20:05:12.710Z,97882.25
2023-04-21T20:08:24.540Z,97878.09
2023-04-21T20:11:31.660Z,97874.56
2023-04-21T20:14:41.955Z,97874.50
2023-04-21T20:17:50.609Z,97885.72
2023-04-21T20:20:57.558Z,97885.00
2023-04-21T20:24:03.963Z,97890.41
2023-04-21T20:27:10.758Z,97884.63
2023-04-21T20:30:17.138Z,97889.06
2023-04-21T20:33:28.386Z,97889.22
2023-04-21T20:36:37.236Z,97885.72
2023-04-21T20:39:47.189Z,97891.91
2023-04-21T20:42:53.185Z,97892.16
2023-04-21T20:46:00.112Z,97890.72
2023-04-21T20:49:09.357Z,97883.25
2023-04-21T20:52:16.328Z,97885.25
2023-04-21T20:55:22.290Z,97889.53
2023-04-21T20:58:28.960Z,97890.91
2023-04-21T21:01:39.276Z,97886.34
2023-04-21T21:04:49.530Z,97884.25
2023-04-21T21:08:02.905Z,97890.31
2023-04-21T21:11:15.900Z,97888.47
2023-04-21T21:14:23.553Z,97885.84
2023-04-21T21:17:30.412Z,97887.75
2023-04-21T21:20:39.043Z,97884.69
2023-04-21T21:23:45.800Z,97887.78
2023-04-21T21:26:51.806Z,97890.66
2023-04-21T21:29:58.571Z,97875.22
2023-04-21T21:33:10.856Z,97889.00
2023-04-21T21:36:20.294Z,97890.59
2023-04-21T21:39:26.958Z,97891.88
2023-04-21T21:42:33.672Z,97894.94
2023-04-21T21:45:39.937Z,97895.13
2023-04-21T21:48:46.730Z,97898.47
2023-04-21T21:51:55.349Z,97897.47
2023-04-21T21:55:05.288Z,97898.22
2023-04-21T21:58:13.642Z,97905.72
2023-04-21T22:01:23.737Z,97903.44
2023-04-21T22:04:29.789Z,97904.75
2023-04-21T22:07:41.122Z,97903.25
2023-04-21T22:10:49.125Z,97907.03
2023-04-21T22:13:56.711Z,97902.72
2023-04-21T22:17:03.770Z,97906.50
2023-04-21T22:20:12.455Z,97911.28
2023-04-21T22:23:22.900Z,97907.16
2023-04-21T22:26:29.646Z,97906.63
2023-04-21T22:29:35.723Z,97906.88
2023-04-21T22:32:42.709Z,97897.34
2023-04-21T22:35:48.724Z,97902.03
2023-04-21T22:38:58.161Z,97895.59
2023-04-21T22:42:04.120Z,97899.81
2023-04-21T22:45:18.676Z,97892.09
2023-04-21T22:48:26.461Z,97892.63
2023-04-21T22:51:33.327Z,97899.94
2023-04-21T22:54:42.823Z,97896.47
2023-04-21T22:57:50.062Z,97898.19
2023-04-21T23:00:56.472Z,97901.56
2023-04-21T23:04:05.055Z,97903.13
2023-04-21T23:07:10.994Z,97904.75
2023-04-21T23:10:20.755Z,97908.06
2023-04-21T23:13:26.650Z,97904.59
2023-04-21T23:16:33.468Z,97892.31
2023-04-21T23:19:39.688Z,97902.09
2023-04-21T23:22:47.679Z,97901.22
2023-04-21T23:25:56.269Z,97897.94
2023-04-21T23:29:05.421Z,97892.50
2023-04-21T23:32:11.461Z,97888.41
2023-04-21T23:35:18.113Z,97886.66
2023-04-21T23:38:24.081Z,97881.53
2023-04-21T23:41:33.776Z,97876.78
2023-04-21T23:44:40.632Z,97888.09
2023-04-21T23:47:48.217Z,97891.31
2023-04-21T23:50:54.169Z,97881.19
2023-04-21T23:54:01.954Z,97875.94
2023-04-21T23:57:10.623Z,97882.94
